createdAt,value
2023-03-24T00:01:26.095Z,97802.84
2023-03-24T00:03:54.239Z,97793.00
2023-03-24T00:06:23.450Z,97790.47
2023-03-24T00:08:53.451Z,97793.00
2023-03-24T00:11:21.671Z,97800.34
2023-03-24T00:13:51.428Z,97796.84
2023-03-24T00:16:21.920Z,97793.13
2023-03-24T00:18:53.505Z,97788.97
2023-03-24T00:21:24.787Z,97793.44
2023-03-24T00:23:55.506Z,97801.31
2023-03-24T00:26:25.226Z,97801.00
2023-03-24T00:28:57.123Z,97787.22
2023-03-24T00:31:26.814Z,97776.75
2023-03-24T00:33:55.325Z,97779.53
2023-03-24T00:36:26.025Z,97776.81
2023-03-24T00:38:55.216Z,97771.34
2023-03-24T00:41:25.129Z,97765.75
2023-03-24T00:43:58.484Z,97750.78
2023-03-24T00:46:30.830Z,97754.19
2023-03-24T00:49:03.525Z,97750.56
2023-03-24T00:51:34.234Z,97745.44
2023-03-24T00:54:03.101Z,97746.59
2023-03-24T00:56:34.469Z,97746.72
2023-03-24T00:59:04.715Z,97740.22
2023-03-24T01:01:36.594Z,97734.63
2023-03-24T01:04:06.896Z,97720.84
2023-03-24T01:06:36.573Z,97720.50
2023-03-24T01:09:06.259Z,97714.72
2023-03-24T01:11:40.344Z,97715.38
2023-03-24T01:14:10.611Z,97699.22
2023-03-24T01:16:38.718Z,97697.91
2023-03-24T01:19:08.652Z,97701.41
2023-03-24T01:21:39.384Z,97697.59
2023-03-24T01:24:08.330Z,97681.28
2023-03-24T01:26:36.579Z,97679.28
2023-03-24T01:29:05.008Z,97685.09
2023-03-24T01:31:37.883Z,97681.78
2023-03-24T01:34:06.741Z,97679.47
2023-03-24T01:36:35.539Z,97675.81
2023-03-24T01:39:04.944Z,97667.00
2023-03-24T01:41:36.360Z,97668.97
2023-03-24T01:44:26.167Z,97661.81
2023-03-24T01:46:56.881Z,97657.00
2023-03-24T01:49:28.164Z,97654.66
2023-03-24T01:51:59.439Z,97646.34
2023-03-24T01:54:33.231Z,97652.13
2023-03-24T01:57:06.409Z,97640.81
2023-03-24T01:59:42.618Z,97652.97
2023-03-24T02:02:25.174Z,97647.34
2023-03-24T02:05:01.622Z,97647.00
2023-03-24T02:07:42.954Z,97648.34
2023-03-24T02:10:13.478Z,97640.03
2023-03-24T02:12:42.763Z,97634.72
2023-03-24T02:15:14.076Z,97640.38
2023-03-24T02:18:01.696Z,97643.16
2023-03-24T02:21:06.285Z,97646.31
2023-03-24T02:24:07.974Z,97640.38
2023-03-24T02:27:06.231Z,97638.38
2023-03-24T02:30:06.643Z,97631.00
2023-03-24T02:33:26.079Z,97632.38
2023-03-24T02:36:28.296Z,97644.00
2023-03-24T02:39:33.064Z,97640.66
2023-03-24T02:42:21.223Z,97625.88
2023-03-24T02:44:58.413Z,97634.19
2023-03-24T02:47:36.366Z,97631.69
2023-03-24T02:50:15.596Z,97627.19
2023-03-24T02:52:49.462Z,97621.88
2023-03-24T02:55:21.894Z,97619.56
2023-03-24T02:57:56.905Z,97613.06
2023-03-24T03:00:48.230Z,97625.69
2023-03-24T03:03:41.707Z,97620.03
2023-03-24T03:06:17.715Z,97619.88
2023-03-24T03:08:48.582Z,97603.34
2023-03-24T03:11:18.414Z,97597.41
2023-03-24T03:13:54.382Z,97601.22
2023-03-24T03:16:25.843Z,97605.03
2023-03-24T03:18:58.239Z,97603.00
2023-03-24T03:21:29.531Z,97606.03
2023-03-24T03:24:03.270Z,97604.00
2023-03-24T03:26:34.242Z,97587.81
2023-03-24T03:29:09.543Z,97588.84
2023-03-24T03:31:42.796Z,97585.66
2023-03-24T03:34:34.268Z,97584.34
2023-03-24T03:37:09.447Z,97586.69
2023-03-24T03:39:42.297Z,97585.22
2023-03-24T03:42:12.471Z,97591.69
2023-03-24T03:44:42.777Z,97596.00
2023-03-24T03:47:10.982Z,97598.63
2023-03-24T03:49:43.752Z,97601.66
2023-03-24T03:52:11.774Z,97595.31
2023-03-24T03:54:42.434Z,97595.16
2023-03-24T03:57:11.841Z,97593.97
2023-03-24T03:59:53.968Z,97589.31
2023-03-24T04:02:40.294Z,97594.72
2023-03-24T04:05:26.074Z,97596.03
2023-03-24T04:08:19.801Z,97596.38
2023-03-24T04:11:12.001Z,97602.00
2023-03-24T04:14:10.222Z,97595.34
2023-03-24T04:16:59.463Z,97597.50
2023-03-24T04:19:44.508Z,97593.72
2023-03-24T04:22:26.859Z,97601.47
2023-03-24T04:25:18.189Z,97592.00
2023-03-24T04:27:57.183Z,97582.47
2023-03-24T04:30:33.287Z,97585.00
2023-03-24T04:33:06.803Z,97573.47
2023-03-24T04:35:40.686Z,97570.63
2023-03-24T04:38:27.643Z,97571.28
2023-03-24T04:41:27.868Z,97571.91
2023-03-24T04:44:08.465Z,97575.94
2023-03-24T04:46:46.604Z,97590.47
2023-03-24T04:49:20.466Z,97582.94
2023-03-24T04:51:49.563Z,97576.22
2023-03-24T04:54:29.847Z,97585.41
2023-03-24T04:57:05.859Z,97577.22
2023-03-24T04:59:46.230Z,97588.38
2023-03-24T05:02:15.667Z,97592.94
2023-03-24T05:04:52.693Z,97602.25
2023-03-24T05:07:27.145Z,97625.53
2023-03-24T05:09:58.908Z,97638.03
2023-03-24T05:12:27.272Z,97638.38
2023-03-24T05:15:13.939Z,97654.50
2023-03-24T05:17:43.912Z,97667.16
2023-03-24T05:20:15.136Z,97664.88
2023-03-24T05:22:49.670Z,97683.00
2023-03-24T05:25:17.828Z,97702.06
2023-03-24T05:27:46.647Z,97703.22
2023-03-24T05:30:21.271Z,97717.56
2023-03-24T05:32:53.003Z,97718.22
2023-03-24T05:35:22.634Z,97726.72
2023-03-24T05:37:50.780Z,97733.13
2023-03-24T05:40:22.169Z,97731.16
2023-03-24T05:42:54.670Z,97725.88
2023-03-24T05:45:27.230Z,97727.56
2023-03-24T05:47:55.963Z,97739.81
2023-03-24T05:50:37.378Z,97743.13
2023-03-24T05:53:06.169Z,97747.78
2023-03-24T05:55:58.723Z,97752.16
2023-03-24T05:58:52.779Z,97750.16
2023-03-24T06:01:21.649Z,97751.06
2023-03-24T06:03:56.565Z,97754.06
2023-03-24T06:06:28.811Z,97754.19
2023-03-24T06:08:58.447Z,97758.94
2023-03-24T06:11:28.417Z,97751.66
2023-03-24T06:14:03.907Z,97743.28
2023-03-24T06:16:42.691Z,97749.72
2023-03-24T06:19:13.955Z,97746.16
2023-03-24T06:22:03.378Z,97744.41
2023-03-24T06:24:36.350Z,97746.09
2023-03-24T06:27:10.644Z,97746.03
2023-03-24T06:29:39.434Z,97738.41
2023-03-24T06:32:08.034Z,97733.94
2023-03-24T06:34:42.093Z,97725.63
2023-03-24T06:37:20.261Z,97731.09
2023-03-24T06:39:48.337Z,97736.78
2023-03-24T06:42:19.012Z,97730.44
2023-03-24T06:44:47.067Z,97730.09
2023-03-24T06:47:17.355Z,97740.22
2023-03-24T06:49:45.561Z,97747.34
2023-03-24T06:52:13.678Z,97743.06
2023-03-24T06:54:43.847Z,97752.16
2023-03-24T06:57:11.836Z,97748.06
2023-03-24T07:00:14.908Z,97759.03
2023-03-24T07:02:57.351Z,97759.69
2023-03-24T07:05:25.496Z,97767.00
2023-03-24T07:08:27.963Z,97762.00
2023-03-24T07:10:46.173Z,97762.97
2023-03-24T07:13:14.384Z,97760.34
2023-03-24T07:15:43.064Z,97756.28
2023-03-24T07:18:13.604Z,97761.63
2023-03-24T07:20:44.527Z,97763.25
2023-03-24T07:23:15.906Z,97767.63
2023-03-24T07:25:59.011Z,97775.78
2023-03-24T07:28:50.399Z,97771.28
2023-03-24T07:31:28.621Z,97777.94
2023-03-24T07:34:02.226Z,97787.25
2023-03-24T07:36:30.842Z,97791.91
2023-03-24T07:38:59.895Z,97789.09
2023-03-24T07:41:35.114Z,97787.88
2023-03-24T07:44:07.748Z,97806.44
2023-03-24T07:46:40.598Z,97794.16
2023-03-24T07:49:19.030Z,97804.06
2023-03-24T07:51:54.600Z,97795.78
2023-03-24T07:54:41.445Z,97806.19
2023-03-24T07:57:11.469Z,97808.25
2023-03-24T07:59:40.154Z,97806.13
2023-03-24T08:02:21.266Z,97803.97
2023-03-24T08:04:58.164Z,97801.75
2023-03-24T08:07:50.435Z,97806.16
2023-03-24T08:10:18.673Z,97804.97
2023-03-24T08:12:48.697Z,97810.22
2023-03-24T08:15:19.070Z,97813.97
2023-03-24T08:17:48.881Z,97820.31
2023-03-24T08:20:17.849Z,97818.78
2023-03-24T08:22:49.685Z,97806.22
2023-03-24T08:25:19.377Z,97783.59
2023-03-24T08:27:49.172Z,97757.94
2023-03-24T08:30:18.999Z,97758.03
2023-03-24T08:32:47.520Z,97749.56
2023-03-24T08:35:17.494Z,97730.66
2023-03-24T08:37:46.528Z,97706.69
2023-03-24T08:40:19.200Z,97668.25
2023-03-24T08:42:51.858Z,97683.91
2023-03-24T08:45:22.294Z,97701.72
2023-03-24T08:47:53.614Z,97706.69
2023-03-24T08:50:26.255Z,97735.56
2023-03-24T08:52:59.540Z,97758.75
2023-03-24T08:55:30.279Z,97743.66
2023-03-24T08:58:00.683Z,97749.91
2023-03-24T09:00:31.440Z,97760.81
2023-03-24T09:03:01.564Z,97767.66
2023-03-24T09:05:41.422Z,97775.00
2023-03-24T09:08:19.999Z,97781.00
2023-03-24T09:10:48.059Z,97769.97
2023-03-24T09:13:18.419Z,97765.34
2023-03-24T09:15:49.992Z,97767.34
2023-03-24T09:18:18.747Z,97776.31
2023-03-24T09:20:47.381Z,97785.47
2023-03-24T09:23:16.210Z,97783.69
2023-03-24T09:25:44.009Z,97785.03
2023-03-24T09:28:14.617Z,97779.84
2023-03-24T09:30:46.242Z,97790.69
2023-03-24T09:33:14.392Z,97791.84
2023-03-24T09:35:42.939Z,97785.56
2023-03-24T09:38:12.312Z,97783.84
2023-03-24T09:40:42.580Z,97776.78
2023-03-24T09:43:28.249Z,97770.81
2023-03-24T09:46:00.040Z,97783.09
2023-03-24T09:48:34.925Z,97781.78
2023-03-24T09:51:07.215Z,97793.09
2023-03-24T09:53:41.794Z,97786.13
2023-03-24T09:56:18.888Z,97775.16
2023-03-24T09:58:54.422Z,97784.97
2023-03-24T10:01:23.659Z,97783.75
2023-03-24T10:03:51.909Z,97761.47
2023-03-24T10:06:26.026Z,97770.06
2023-03-24T10:09:04.824Z,97772.28
2023-03-24T10:11:39.336Z,97765.00
2023-03-24T10:14:34.028Z,97763.97
2023-03-24T10:17:14.617Z,97766.25
2023-03-24T10:19:54.120Z,97757.81
2023-03-24T10:22:32.576Z,97755.13
2023-03-24T10:25:08.174Z,97762.91
2023-03-24T10:27:41.048Z,97761.28
2023-03-24T10:30:16.778Z,97766.56
2023-03-24T10:32:47.174Z,97760.53
2023-03-24T10:35:23.821Z,97774.50
2023-03-24T10:37:53.085Z,97773.06
2023-03-24T10:40:23.649Z,97763.56
2023-03-24T10:43:06.987Z,97763.94
2023-03-24T10:45:40.721Z,97762.44
2023-03-24T10:48:10.657Z,97764.38
2023-03-24T10:50:43.361Z,97773.13
2023-03-24T10:53:18.595Z,97771.50
2023-03-24T10:55:48.162Z,97770.91
2023-03-24T10:58:22.216Z,97777.69
2023-03-24T11:00:50.465Z,97794.06
2023-03-24T11:03:28.525Z,97800.63
2023-03-24T11:06:01.303Z,97788.31
2023-03-24T11:08:35.593Z,97796.66
2023-03-24T11:11:15.300Z,97795.25
2023-03-24T11:13:56.693Z,97791.75
2023-03-24T11:16:29.838Z,97776.66
2023-03-24T11:19:02.197Z,97773.84
2023-03-24T11:21:32.086Z,97778.09
2023-03-24T11:24:03.704Z,97780.09
2023-03-24T11:26:34.671Z,97791.44
2023-03-24T11:29:07.558Z,97793.84
2023-03-24T11:31:38.414Z,97800.91
2023-03-24T11:34:13.689Z,97788.16
2023-03-24T11:36:49.736Z,97791.91
2023-03-24T11:39:20.616Z,97777.59
2023-03-24T11:42:03.688Z,97803.06
2023-03-24T11:44:46.678Z,97800.56
2023-03-24T11:47:22.417Z,97804.44
2023-03-24T11:49:58.072Z,97788.59
2023-03-24T11:52:30.504Z,97795.78
2023-03-24T11:54:58.610Z,97795.84
2023-03-24T11:57:40.704Z,97789.84
2023-03-24T12:00:20.143Z,97788.56
2023-03-24T12:03:09.234Z,97785.28
2023-03-24T12:05:42.616Z,97789.38
2023-03-24T12:08:30.531Z,97794.13
2023-03-24T12:11:19.496Z,97795.38
2023-03-24T12:13:50.564Z,97803.22
2023-03-24T12:16:32.311Z,97790.81
2023-03-24T12:19:30.243Z,97798.13
2023-03-24T12:22:10.906Z,97782.72
2023-03-24T12:24:54.349Z,97791.81
2023-03-24T12:27:30.623Z,97785.00
2023-03-24T12:30:05.403Z,97776.72
2023-03-24T12:32:41.595Z,97786.47
2023-03-24T12:35:44.264Z,97800.00
2023-03-24T12:38:31.495Z,97794.50
2023-03-24T12:41:27.150Z,97801.28
2023-03-24T12:44:13.693Z,97804.81
2023-03-24T12:46:55.807Z,97808.88
2023-03-24T12:49:43.196Z,97811.56
2023-03-24T12:52:39.977Z,97808.69
2023-03-24T12:55:18.417Z,97806.84
2023-03-24T12:57:53.367Z,97808.22
2023-03-24T13:00:28.087Z,97799.22
2023-03-24T13:03:04.122Z,97782.69
2023-03-24T13:05:35.258Z,97785.03
2023-03-24T13:08:08.359Z,97787.22
2023-03-24T13:10:41.221Z,97775.22
2023-03-24T13:13:17.591Z,97766.97
2023-03-24T13:15:54.875Z,97785.00
2023-03-24T13:18:46.283Z,97787.16
2023-03-24T13:21:18.224Z,97780.16
2023-03-24T13:23:55.521Z,97790.59
2023-03-24T13:26:38.858Z,97781.22
2023-03-24T13:29:26.765Z,97814.09
2023-03-24T13:32:05.994Z,97827.41
2023-03-24T13:34:38.094Z,97833.09
2023-03-24T13:37:16.374Z,97835.47
2023-03-24T13:39:48.524Z,97845.19
2023-03-24T13:42:34.747Z,97840.72
2023-03-24T13:45:07.336Z,97844.34
2023-03-24T13:48:06.092Z,97838.13
2023-03-24T13:50:35.811Z,97835.59
2023-03-24T13:53:14.154Z,97844.94
2023-03-24T13:55:50.689Z,97846.16
2023-03-24T13:58:23.240Z,97845.72
2023-03-24T14:01:18.041Z,97862.50
2023-03-24T14:03:47.775Z,97858.53
2023-03-24T14:06:18.271Z,97851.84
2023-03-24T14:09:01.829Z,97855.19
2023-03-24T14:11:45.624Z,97863.41
2023-03-24T14:14:25.634Z,97857.84
2023-03-24T14:17:12.165Z,97858.59
2023-03-24T14:19:42.436Z,97858.97
2023-03-24T14:22:19.535Z,97858.59
2023-03-24T14:25:01.976Z,97855.53
2023-03-24T14:27:37.690Z,97863.78
2023-03-24T14:30:22.654Z,97857.09
2023-03-24T14:32:54.110Z,97853.75
2023-03-24T14:35:26.421Z,97843.97
2023-03-24T14:37:57.463Z,97849.19
2023-03-24T14:40:29.681Z,97845.94
2023-03-24T14:43:05.787Z,97854.31
2023-03-24T14:45:43.180Z,97853.84
2023-03-24T14:48:26.907Z,97858.47
2023-03-24T14:50:56.414Z,97853.63
2023-03-24T14:53:24.919Z,97865.25
2023-03-24T14:55:56.355Z,97867.50
2023-03-24T14:58:28.622Z,97865.22
2023-03-24T15:01:07.647Z,97860.50
2023-03-24T15:03:45.966Z,97853.22
2023-03-24T15:06:16.306Z,97860.84
2023-03-24T15:08:51.326Z,97856.47
2023-03-24T15:11:24.312Z,97850.13
2023-03-24T15:13:53.614Z,97857.25
2023-03-24T15:16:26.438Z,97856.50
2023-03-24T15:21:30.092Z,97849.88
2023-03-24T15:24:01.044Z,97849.50
2023-03-24T15:26:30.965Z,97840.09
2023-03-24T15:29:00.903Z,97826.06
2023-03-24T15:31:34.822Z,97826.06
2023-03-24T15:34:08.274Z,97819.56
2023-03-24T15:36:45.882Z,97820.75
2023-03-24T15:39:21.845Z,97810.75
2023-03-24T15:41:53.333Z,97813.03
2023-03-24T15:44:22.491Z,97808.59
2023-03-24T15:46:51.880Z,97812.53
2023-03-24T15:49:25.058Z,97812.66
2023-03-24T15:52:00.851Z,97812.63
2023-03-24T15:54:45.760Z,97809.56
2023-03-24T15:57:26.332Z,97823.81
2023-03-24T16:00:21.745Z,97826.66
2023-03-24T16:03:10.047Z,97818.34
2023-03-24T16:05:48.678Z,97808.66
2023-03-24T16:08:28.714Z,97802.41
2023-03-24T16:10:59.933Z,97800.63
2023-03-24T16:13:29.058Z,97809.44
2023-03-24T16:16:01.325Z,97814.81
2023-03-24T16:18:34.549Z,97808.81
2023-03-24T16:21:04.116Z,97815.00
2023-03-24T16:23:33.241Z,97815.59
2023-03-24T16:26:01.609Z,97812.69
2023-03-24T16:28:32.711Z,97815.72
2023-03-24T16:31:04.778Z,97819.75
2023-03-24T16:33:35.750Z,97818.09
2023-03-24T16:36:04.577Z,97824.31
2023-03-24T16:38:34.626Z,97814.50
2023-03-24T16:41:03.646Z,97817.16
2023-03-24T16:43:35.026Z,97824.75
2023-03-24T16:46:05.839Z,97824.72
2023-03-24T16:48:37.233Z,97819.28
2023-03-24T16:51:08.060Z,97831.38
2023-03-24T16:53:36.903Z,97843.00
2023-03-24T16:56:12.774Z,97833.16
2023-03-24T16:58:50.870Z,97832.72
2023-03-24T17:01:30.156Z,97833.25
2023-03-24T17:04:06.001Z,97829.84
2023-03-24T17:06:42.263Z,97832.09
2023-03-24T17:09:17.120Z,97836.44
2023-03-24T17:11:46.805Z,97831.00
2023-03-24T17:14:19.134Z,97827.94
2023-03-24T17:16:55.035Z,97830.94
2023-03-24T17:19:44.943Z,97821.94
2023-03-24T17:22:17.599Z,97828.88
2023-03-24T17:24:48.721Z,97823.88
2023-03-24T17:27:21.552Z,97835.78
2023-03-24T17:29:50.500Z,97830.47
2023-03-24T17:32:19.914Z,97829.63
2023-03-24T17:34:51.114Z,97833.34
2023-03-24T17:37:29.219Z,97830.69
2023-03-24T17:40:28.743Z,97833.75
2023-03-24T17:42:57.870Z,97837.75
2023-03-24T17:45:25.874Z,97841.63
2023-03-24T17:47:55.478Z,97844.34
2023-03-24T17:50:26.044Z,97845.13
2023-03-24T17:52:54.172Z,97850.50
2023-03-24T17:55:22.284Z,97859.59
2023-03-24T17:57:50.305Z,97868.88
2023-03-24T18:00:18.742Z,97870.56
2023-03-24T18:02:49.004Z,97879.19
2023-03-24T18:05:19.085Z,97872.88
2023-03-24T18:07:48.802Z,97874.56
2023-03-24T18:10:16.987Z,97884.19
2023-03-24T18:12:45.286Z,97885.75
2023-03-24T18:15:13.749Z,97880.66
2023-03-24T18:17:43.340Z,97894.78
2023-03-24T18:20:15.004Z,97891.34
2023-03-24T18:22:44.710Z,97901.28
2023-03-24T18:25:14.881Z,97901.38
2023-03-24T18:27:43.822Z,97905.72
2023-03-24T18:30:15.351Z,97907.63
2023-03-24T18:32:43.992Z,97915.69
2023-03-24T18:35:16.653Z,97912.38
2023-03-24T18:37:45.092Z,97916.53
2023-03-24T18:40:15.849Z,97917.97
2023-03-24T18:42:44.070Z,97927.69
2023-03-24T18:45:17.509Z,97919.34
2023-03-24T18:47:46.497Z,97925.22
2023-03-24T18:50:14.956Z,97924.66
2023-03-24T18:52:42.984Z,97928.00
2023-03-24T18:55:11.590Z,97933.72
2023-03-24T18:57:41.916Z,97935.03
2023-03-24T19:00:14.455Z,97931.53
2023-03-24T19:02:43.171Z,97936.84
2023-03-24T19:05:14.251Z,97928.31
2023-03-24T19:07:42.283Z,97930.19
2023-03-24T19:10:11.213Z,97936.31
2023-03-24T19:12:41.020Z,97933.06
2023-03-24T19:15:09.988Z,97931.13
2023-03-24T19:17:40.307Z,97942.31
2023-03-24T19:20:12.251Z,97934.22
2023-03-24T19:22:42.732Z,97938.69
2023-03-24T19:25:10.773Z,97949.28
2023-03-24T19:27:40.056Z,97952.09
2023-03-24T19:30:09.383Z,97950.28
2023-03-24T19:32:37.611Z,97955.84
2023-03-24T19:35:06.482Z,97961.28
2023-03-24T19:37:35.003Z,97960.19
2023-03-24T19:40:09.922Z,97964.66
2023-03-24T19:42:52.702Z,97970.91
2023-03-24T19:45:27.904Z,97971.63
2023-03-24T19:47:56.047Z,97973.00
2023-03-24T19:50:24.450Z,97974.41
2023-03-24T19:52:52.791Z,97974.13
2023-03-24T19:55:22.146Z,97967.69
2023-03-24T19:57:52.126Z,97963.78
2023-03-24T20:00:21.142Z,97967.16
2023-03-24T20:02:49.820Z,97966.84
2023-03-24T20:05:18.327Z,97961.00
2023-03-24T20:07:47.122Z,97958.91
2023-03-24T20:10:15.952Z,97957.66
2023-03-24T20:12:53.510Z,97960.44
2023-03-24T20:15:43.003Z,97958.78
2023-03-24T20:18:11.567Z,97959.19
2023-03-24T20:20:40.345Z,97960.44
2023-03-24T20:23:10.759Z,97960.69
2023-03-24T20:25:48.695Z,97964.31
2023-03-24T20:28:26.687Z,97969.59
2023-03-24T20:31:03.114Z,97960.00
2023-03-24T20:33:36.773Z,97967.34
2023-03-24T20:36:09.509Z,97962.66
2023-03-24T20:38:39.618Z,97962.94
2023-03-24T20:41:08.292Z,97965.97
2023-03-24T20:43:38.912Z,97975.75
2023-03-24T20:46:10.413Z,97956.38
2023-03-24T20:48:38.670Z,97950.50
2023-03-24T20:51:07.410Z,97948.56
2023-03-24T20:53:36.778Z,97949.53
2023-03-24T20:56:08.014Z,97948.09
2023-03-24T20:58:39.638Z,97949.13
2023-03-24T21:01:15.591Z,97951.19
2023-03-24T21:03:43.897Z,97950.84
2023-03-24T21:06:13.769Z,97954.78
2023-03-24T21:08:45.937Z,97957.78
2023-03-24T21:11:16.626Z,97953.06
2023-03-24T21:13:46.707Z,97954.34
2023-03-24T21:16:19.755Z,97958.94
2023-03-24T21:18:50.125Z,97960.06
2023-03-24T21:21:18.218Z,97961.44
2023-03-24T21:23:46.077Z,97965.34
2023-03-24T21:26:15.767Z,97964.50
2023-03-24T21:28:46.524Z,97963.50
2023-03-24T21:31:21.472Z,97963.78
2023-03-24T21:33:49.821Z,97969.22
2023-03-24T21:36:18.344Z,97967.78
2023-03-24T21:38:51.721Z,97976.72
2023-03-24T21:41:20.738Z,97976.41
2023-03-24T21:43:51.361Z,97976.94
2023-03-24T21:46:22.119Z,97985.44
2023-03-24T21:48:52.116Z,97985.88
2023-03-24T21:51:21.495Z,97993.44
2023-03-24T21:53:49.383Z,97997.22
2023-03-24T21:56:17.788Z,97999.91
2023-03-24T21:58:46.357Z,98007.63
2023-03-24T22:01:14.813Z,97996.09
2023-03-24T22:03:44.182Z,97999.59
2023-03-24T22:06:14.576Z,97992.06
2023-03-24T22:08:44.139Z,97986.03
2023-03-24T22:11:15.385Z,97973.66
2023-03-24T22:13:43.390Z,97979.75
2023-03-24T22:16:11.413Z,97981.59
2023-03-24T22:18:39.333Z,97979.19
2023-03-24T22:21:11.032Z,97989.00
2023-03-24T22:23:42.437Z,98002.38
2023-03-24T22:26:13.306Z,98006.25
2023-03-24T22:28:42.197Z,97993.19
2023-03-24T22:31:12.596Z,98002.19
2023-03-24T22:33:40.769Z,98003.19
2023-03-24T22:36:11.425Z,98001.81
2023-03-24T22:38:39.920Z,98011.28
2023-03-24T22:41:09.819Z,98010.16
2023-03-24T22:43:39.603Z,98024.25
2023-03-24T22:46:08.076Z,98034.41
2023-03-24T22:48:36.110Z,98055.72
2023-03-24T22:51:04.367Z,98046.88
2023-03-24T22:53:33.544Z,98062.63
2023-03-24T22:56:01.527Z,98057.72
2023-03-24T22:58:29.346Z,98062.81
2023-03-24T23:00:57.868Z,98052.91
2023-03-24T23:03:25.860Z,98056.44
2023-03-24T23:05:56.817Z,98051.91
2023-03-24T23:08:24.856Z,98052.38
2023-03-24T23:10:55.360Z,98061.41
2023-03-24T23:13:23.561Z,98093.13
2023-03-24T23:15:52.283Z,98115.69
2023-03-24T23:18:21.480Z,98105.88
2023-03-24T23:20:49.378Z,98083.63
2023-03-24T23:23:17.684Z,98090.22
2023-03-24T23:25:46.425Z,98086.69
2023-03-24T23:28:16.098Z,98089.97
2023-03-24T23:30:43.993Z,98088.56
2023-03-24T23:33:14.962Z,98083.94
2023-03-24T23:35:43.762Z,98080.31
2023-03-24T23:38:11.687Z,98066.22
2023-03-24T23:40:39.812Z,98083.78
2023-03-24T23:43:07.730Z,98081.38
2023-03-24T23:45:37.011Z,98091.06
2023-03-24T23:48:05.656Z,98087.13
2023-03-24T23:50:34.101Z,98081.84
2023-03-24T23:53:01.975Z,98088.00
2023-03-24T23:55:29.843Z,98094.84
2023-03-24T23:57:57.754Z,98095.09
